Time;durP1;ratioP1;P1;durP2;ratioP2;P2;SDS_P1;SDS_P2;PMS_P1;PMS_P2;Temp;Humidity;BMP_temperature;BMP_pressure;BME280_temperature;BME280_humidity;BME280_pressure;Samples;Min_cycle;Max_cycle;Signal;HPM_P1;HPM_P2
2022/07/14 00:04:39;;;;;;;13.98;3.92;;;;;19.00;101591.00;;;;10446043;28;20201;-77
2022/07/14 00:09:41;;;;;;;17.25;4.32;;;;;18.90;101599.00;;;;10437644;28;20229;-77
2022/07/14 00:14:43;;;;;;;6.13;3.10;;;;;18.80;101605.00;;;;10387853;28;20190;-77
2022/07/14 00:19:46;;;;;;;11.43;4.20;;;;;18.80;101615.00;;;;10394836;28;20189;-77
2022/07/14 00:24:48;;;;;;;14.25;3.95;;;;;18.80;101652.00;;;;10461252;28;20198;-77
2022/07/14 00:29:50;;;;;;;7.30;3.28;;;;;18.50;101643.00;;;;10445632;28;20231;-77
2022/07/14 00:34:52;;;;;;;9.35;3.55;;;;;18.50;101629.00;;;;10450317;28;20725;-77
2022/07/14 00:39:54;;;;;;;9.70;3.70;;;;;18.50;101598.00;;;;10429434;28;20202;-77
2022/07/14 00:44:56;;;;;;;8.60;3.75;;;;;18.50;101585.00;;;;10461310;28;20247;-78
2022/07/14 00:49:59;;;;;;;7.15;3.08;;;;;18.50;101575.00;;;;10460539;28;20289;-79
2022/07/14 00:55:02;;;;;;;6.35;3.45;;;;;18.40;101559.00;;;;10444246;28;20220;-79
2022/07/14 01:00:10;;;;;;;13.90;4.22;;;;;18.30;101585.00;;;;10461126;28;20198;-79
2022/07/14 01:05:12;;;;;;;9.60;3.67;;;;;18.10;101592.00;;;;10449843;28;20194;-79
2022/07/14 01:10:14;;;;;;;7.60;3.47;;;;;17.80;101588.00;;;;10403266;28;20206;-78
2022/07/14 01:15:18;;;;;;;15.45;4.88;;;;;17.60;101581.00;;;;10421022;28;20247;-78
2022/07/14 01:20:21;;;;;;;10.27;4.50;;;;;17.50;101584.00;;;;10477177;28;20186;-78
2022/07/14 01:25:24;;;;;;;13.65;5.18;;;;;17.50;101609.00;;;;10477341;28;20197;-78
2022/07/14 01:30:26;;;;;;;9.32;4.30;;;;;17.40;101594.00;;;;10456903;28;20218;-78
2022/07/14 01:35:28;;;;;;;11.02;4.72;;;;;17.40;101574.00;;;;10458724;28;20182;-78
2022/07/14 01:40:31;;;;;;;17.60;5.50;;;;;17.30;101574.00;;;;10481152;28;20598;-78
2022/07/14 01:45:34;;;;;;;11.10;5.00;;;;;17.30;101582.00;;;;10467186;28;20197;-79
2022/07/14 01:50:37;;;;;;;11.15;5.07;;;;;17.30;101595.00;;;;10435376;28;20212;-79
2022/07/14 01:55:39;;;;;;;9.80;4.20;;;;;17.30;101594.00;;;;10451042;28;20237;-78
2022/07/14 02:00:42;;;;;;;10.40;4.72;;;;;17.20;101585.00;;;;10451768;28;20294;-78
2022/07/14 02:05:47;;;;;;;13.93;5.23;;;;;17.20;101578.00;;;;10409125;28;20224;-78
2022/07/14 02:16:10;;;;;;;16.60;6.03;;;;;17.00;101552.00;;;;10465927;28;20224;-78
2022/07/14 02:21:13;;;;;;;11.75;5.50;;;;;17.00;101522.00;;;;10448936;28;20190;-79
2022/07/14 02:26:15;;;;;;;13.30;6.00;;;;;16.90;101517.00;;;;10465606;28;20652;-78
2022/07/14 02:31:17;;;;;;;13.70;6.45;;;;;16.80;101511.00;;;;10464968;28;20210;-78
2022/07/14 02:36:19;;;;;;;14.87;6.40;;;;;16.80;101530.00;;;;10449384;28;20201;-77
2022/07/14 02:41:22;;;;;;;11.07;6.50;;;;;16.70;101531.00;;;;10465455;28;20212;-77
2022/07/14 02:46:24;;;;;;;13.97;6.30;;;;;16.70;101547.00;;;;10437829;28;20596;-78
2022/07/14 02:51:26;;;;;;;13.10;6.93;;;;;16.60;101551.00;;;;10465874;28;20280;-78
2022/07/14 02:56:28;;;;;;;15.07;7.03;;;;;16.60;101572.00;;;;10465122;28;20212;-78
2022/07/14 03:01:31;;;;;;;14.07;6.57;;;;;16.50;101580.00;;;;10464703;28;20300;-78
2022/07/14 03:06:35;;;;;;;12.77;6.97;;;;;16.40;101576.00;;;;10425882;28;20213;-79
2022/07/14 03:11:39;;;;;;;13.37;7.40;;;;;16.40;101565.00;;;;10423565;28;20221;-79
2022/07/14 03:16:42;;;;;;;16.20;7.40;;;;;16.50;101576.00;;;;10439372;28;20228;-79
2022/07/14 03:21:45;;;;;;;11.67;6.90;;;;;16.50;101568.00;;;;10445143;28;20194;-79
2022/07/14 03:26:50;;;;;;;11.23;7.37;;;;;16.50;101549.00;;;;10446156;28;20197;-79
2022/07/14 03:31:52;;;;;;;18.60;7.60;;;;;16.50;101551.00;;;;10447581;28;20231;-79
2022/07/14 03:36:56;;;;;;;15.00;7.33;;;;;16.40;101538.00;;;;10462776;28;20196;-79
2022/07/14 03:42:04;;;;;;;16.40;7.80;;;;;16.50;101546.00;;;;10479636;28;20194;-79
2022/07/14 03:47:07;;;;;;;15.97;8.70;;;;;16.50;101535.00;;;;10435201;28;20213;-79
2022/07/14 03:52:09;;;;;;;14.90;7.00;;;;;16.50;101527.00;;;;10454522;28;20278;-79
2022/07/14 03:57:14;;;;;;;14.60;7.33;;;;;16.60;101524.00;;;;10415280;28;20197;-79
2022/07/14 04:02:18;;;;;;;15.80;7.20;;;;;16.50;101542.00;;;;10446337;28;20205;-79
2022/07/14 04:07:21;;;;;;;16.83;7.57;;;;;16.50;101536.00;;;;10437888;28;20244;-79
2022/07/14 04:12:23;;;;;;;15.43;7.30;;;;;16.60;101537.00;;;;10451845;28;20276;-79
2022/07/14 04:17:26;;;;;;;11.30;6.97;;;;;16.60;101521.00;;;;10461621;28;20208;-79
2022/07/14 04:22:29;;;;;;;16.43;6.80;;;;;16.60;101519.00;;;;10445668;28;20203;-79
2022/07/14 04:27:44;;;;;;;14.27;6.90;;;;;16.60;101507.00;;;;10440928;28;20258;-79
2022/07/14 04:32:47;;;;;;;12.23;7.07;;;;;16.70;101509.00;;;;10445442;28;20564;-79
2022/07/14 04:37:51;;;;;;;13.40;7.50;;;;;16.80;101505.00;;;;10395990;28;20198;-79
2022/07/14 04:43:04;;;;;;;19.42;8.23;;;;;16.90;101507.00;;;;10444678;28;20225;-79
2022/07/14 04:48:08;;;;;;;17.37;7.37;;;;;17.00;101514.00;;;;10444979;28;20214;-79
2022/07/14 04:53:10;;;;;;;15.98;7.40;;;;;17.10;101518.00;;;;10436585;28;20190;-79
2022/07/14 04:58:35;;;;;;;14.82;6.78;;;;;17.20;101517.00;;;;10454005;28;20229;-79
2022/07/14 05:03:39;;;;;;;16.00;7.38;;;;;17.40;101535.00;;;;10421726;28;20739;-79
2022/07/14 05:08:42;;;;;;;16.52;7.53;;;;;17.50;101533.00;;;;10418348;28;20203;-79
2022/07/14 05:13:45;;;;;;;15.35;7.50;;;;;17.60;101540.00;;;;10472623;28;20193;-79
2022/07/14 05:18:47;;;;;;;11.75;6.95;;;;;17.70;101536.00;;;;10453694;28;20649;-79
2022/07/14 05:23:50;;;;;;;18.80;7.90;;;;;17.70;101535.00;;;;10469314;28;20197;-79
2022/07/14 05:28:54;;;;;;;14.50;7.60;;;;;17.70;101535.00;;;;10484217;28;20212;-79
2022/07/14 05:33:56;;;;;;;15.07;6.93;;;;;17.60;101532.00;;;;10452498;28;20238;-79
2022/07/14 05:38:59;;;;;;;18.93;7.77;;;;;17.60;101541.00;;;;10424410;28;20244;-79
2022/07/14 05:44:00;;;;;;;15.38;7.25;;;;;17.60;101537.00;;;;10443565;28;20683;-79
2022/07/14 05:49:03;;;;;;;16.73;8.13;;;;;17.80;101539.00;;;;10451256;28;20342;-79
2022/07/14 05:54:05;;;;;;;17.42;8.45;;;;;18.50;101543.00;;;;10434498;28;20193;-79
2022/07/14 05:59:07;;;;;;;14.30;7.20;;;;;19.40;101537.00;;;;10434307;28;20738;-79
2022/07/14 06:04:30;;;;;;;14.65;6.47;;;;;19.70;101549.00;;;;10460620;28;20285;-79
2022/07/14 06:09:36;;;;;;;15.25;6.95;;;;;20.10;101539.00;;;;10468160;28;20201;-79
2022/07/14 06:14:40;;;;;;;17.45;6.53;;;;;20.60;101536.00;;;;10448122;28;20288;-79
2022/07/14 06:19:44;;;;;;;12.82;5.75;;;;;21.40;101542.00;;;;10450943;28;20253;-79
2022/07/14 06:24:49;;;;;;;12.00;4.88;;;;;21.00;101532.00;;;;10481863;28;20194;-79
2022/07/14 06:29:56;;;;;;;13.65;5.63;;;;;21.40;101531.00;;;;10444284;28;20210;-79
2022/07/14 06:34:58;;;;;;;16.55;4.88;;;;;21.40;101538.00;;;;10476230;28;20676;-79
2022/07/14 06:40:05;;;;;;;14.20;4.90;;;;;21.00;101537.00;;;;10450289;28;20182;-79
2022/07/14 06:45:12;;;;;;;7.18;4.35;;;;;20.60;101525.00;;;;10465260;28;20193;-80
2022/07/14 06:50:14;;;;;;;11.77;4.82;;;;;20.40;101519.00;;;;10465800;28;20660;-79
2022/07/14 06:55:17;;;;;;;14.45;5.68;;;;;20.30;101498.00;;;;10423902;28;20202;-80
2022/07/14 07:00:19;;;;;;;17.33;5.70;;;;;20.90;101505.00;;;;10427880;28;20233;-79
2022/07/14 07:10:41;;;;;;;13.13;5.97;;;;;21.50;101501.00;;;;10465364;28;20280;-80
2022/07/14 07:15:44;;;;;;;13.05;5.35;;;;;22.80;101513.00;;;;10407621;28;20199;-79
2022/07/14 07:20:46;;;;;;;12.98;5.40;;;;;22.10;101511.00;;;;10406812;28;20198;-79
2022/07/14 07:25:53;;;;;;;11.63;4.57;;;;;22.80;101520.00;;;;10445027;28;20608;-79
2022/07/14 07:30:55;;;;;;;12.98;4.60;;;;;23.30;101510.00;;;;10402871;28;20210;-80
2022/07/14 07:35:58;;;;;;;10.07;3.83;;;;;23.50;101509.00;;;;10479718;28;20670;-79
2022/07/14 07:41:03;;;;;;;11.18;4.53;;;;;23.90;101501.00;;;;10413827;28;20683;-79
2022/07/14 07:46:06;;;;;;;9.13;4.57;;;;;24.40;101502.00;;;;10462728;28;20188;-79
2022/07/14 07:51:08;;;;;;;8.43;4.28;;;;;25.00;101493.00;;;;10447237;28;20210;-80
2022/07/14 07:56:11;;;;;;;13.13;4.10;;;;;25.00;101495.00;;;;10435786;28;20678;-80
2022/07/14 08:01:13;;;;;;;9.38;3.83;;;;;25.70;101479.00;;;;10461299;28;20238;-81
2022/07/14 08:06:15;;;;;;;11.15;4.03;;;;;25.60;101477.00;;;;10468991;28;20245;-80
2022/07/14 08:11:40;;;;;;;15.80;4.10;;;;;26.30;101463.00;;;;10437676;28;20241;-79
2022/07/14 08:16:42;;;;;;;9.23;3.83;;;;;26.90;101464.00;;;;10471258;28;20789;-80
2022/07/14 08:21:44;;;;;;;13.45;3.50;;;;;26.20;101469.00;;;;10405383;28;20722;-80
2022/07/14 08:26:47;;;;;;;6.50;3.30;;;;;26.50;101473.00;;;;10438037;28;20239;-80
2022/07/14 08:31:50;;;;;;;9.02;3.42;;;;;26.70;101460.00;;;;10427145;28;20284;-79
2022/07/14 08:36:52;;;;;;;8.32;3.40;;;;;26.60;101466.00;;;;10437267;28;20228;-80
2022/07/14 08:42:03;;;;;;;13.13;3.53;;;;;27.00;101453.00;;;;10461730;28;20189;-79
2022/07/14 08:47:08;;;;;;;8.88;3.42;;;;;28.30;101462.00;;;;10432426;28;20194;-79
2022/07/14 08:52:11;;;;;;;7.72;3.13;;;;;27.80;101471.00;;;;10441171;28;20236;-79
2022/07/14 08:57:13;;;;;;;11.10;3.05;;;;;27.90;101457.00;;;;10448022;28;20233;-79
2022/07/14 09:02:15;;;;;;;8.20;2.83;;;;;28.00;101479.00;;;;10479205;28;20205;-79
2022/07/14 09:07:35;;;;;;;8.30;2.72;;;;;27.20;101481.00;;;;10441283;28;20197;-78
2022/07/14 09:12:38;;;;;;;10.48;3.50;;;;;27.90;101476.00;;;;10488612;28;20224;-79
2022/07/14 09:17:55;;;;;;;11.63;3.40;;;;;28.00;101478.00;;;;10460813;28;20252;-79
2022/07/14 09:23:00;;;;;;;7.78;2.65;;;;;27.50;101466.00;;;;10441115;28;20193;-80
2022/07/14 09:28:04;;;;;;;6.63;2.70;;;;;27.90;101475.00;;;;10453477;28;20636;-80
2022/07/14 09:33:06;;;;;;;9.52;2.55;;;;;27.90;101466.00;;;;10450214;28;20227;-77
2022/07/14 09:38:25;;;;;;;7.00;2.00;;;;;30.20;101470.00;;;;10465258;28;20190;-79
2022/07/14 09:43:27;;;;;;;5.18;1.90;;;;;28.50;101463.00;;;;10478246;28;20190;-79
2022/07/14 09:48:29;;;;;;;8.95;2.30;;;;;27.90;101480.00;;;;10455366;28;20526;-79
2022/07/14 09:53:34;;;;;;;8.88;2.00;;;;;29.00;101474.00;;;;10445305;28;20202;-79
2022/07/14 09:58:52;;;;;;;5.45;2.17;;;;;29.30;101464.00;;;;10471380;28;20228;-79
2022/07/14 10:03:55;;;;;;;11.93;2.50;;;;;30.00;101464.00;;;;10461423;28;20556;-77
2022/07/14 10:08:59;;;;;;;8.85;2.30;;;;;30.70;101481.00;;;;10466904;28;20196;-77
2022/07/14 10:14:07;;;;;;;5.97;2.33;;;;;31.30;101469.00;;;;10461387;28;20296;-77
2022/07/14 10:19:11;;;;;;;6.65;2.00;;;;;31.50;101474.00;;;;10454349;28;20186;-77
2022/07/14 10:24:17;;;;;;;9.23;2.13;;;;;31.50;101473.00;;;;10451434;28;20656;-78
2022/07/14 10:29:20;;;;;;;3.30;1.73;;;;;31.40;101482.00;;;;10440687;28;20681;-78
2022/07/14 10:34:38;;;;;;;9.30;1.63;;;;;31.30;101475.00;;;;10453846;28;20616;-78
2022/07/14 10:39:48;;;;;;;5.07;1.88;;;;;31.50;101487.00;;;;10445175;28;20186;-78
2022/07/14 10:44:51;;;;;;;6.78;2.22;;;;;31.10;101485.00;;;;10450683;28;20734;-78
2022/07/14 10:50:00;;;;;;;7.93;1.98;;;;;30.50;101482.00;;;;10440575;28;20213;-78
2022/07/14 10:55:12;;;;;;;5.20;1.70;;;;;31.70;101488.00;;;;10450315;28;20221;-78
2022/07/14 11:00:43;;;;;;;3.72;2.15;;;;;32.70;101476.00;;;;10425729;28;20304;-78
2022/07/14 11:06:06;;;;;;;4.28;1.83;;;;;33.50;101485.00;;;;10455943;28;20186;-79
2022/07/14 11:11:25;;;;;;;6.68;1.70;;;;;31.80;101491.00;;;;10457559;28;20238;-78
2022/07/14 11:16:46;;;;;;;5.55;1.48;;;;;31.00;101479.00;;;;10480675;28;20220;-78
2022/07/14 11:22:17;;;;;;;5.95;1.73;;;;;31.60;101478.00;;;;10463823;28;20228;-78
2022/07/14 11:27:35;;;;;;;4.18;1.48;;;;;32.60;101474.00;;;;10451563;28;20242;-78
2022/07/14 11:32:38;;;;;;;4.22;1.67;;;;;32.70;101481.00;;;;10448445;28;20216;-78
2022/07/14 11:38:00;;;;;;;7.32;1.67;;;;;32.00;101482.00;;;;10467601;28;20225;-79
2022/07/14 11:43:28;;;;;;;3.30;1.60;;;;;31.50;101489.00;;;;10437307;28;20192;-79
2022/07/14 11:48:53;;;;;;;6.38;1.95;;;;;30.70;101478.00;;;;10479216;28;20212;-79
2022/07/14 11:54:00;;;;;;;5.85;1.60;;;;;31.40;101471.00;;;;10437731;28;20194;-79
2022/07/14 11:59:03;;;;;;;7.32;1.77;;;;;33.00;101465.00;;;;10425075;28;20217;-80
2022/07/14 12:04:15;;;;;;;4.90;1.48;;;;;34.00;101471.00;;;;10430554;28;20186;-79
2022/07/14 12:09:30;;;;;;;5.93;1.67;;;;;35.50;101471.00;;;;10425557;28;20201;-80
2022/07/14 12:14:47;;;;;;;6.30;1.70;;;;;35.40;101469.00;;;;10390198;28;20284;-80
2022/07/14 12:19:49;;;;;;;8.90;1.60;;;;;35.30;101473.00;;;;10445454;28;20185;-80
2022/07/14 12:24:51;;;;;;;2.58;1.58;;;;;34.80;101480.00;;;;10445124;28;20542;-79
2022/07/14 12:29:55;;;;;;;4.13;1.40;;;;;34.40;101466.00;;;;10425717;28;20209;-79
2022/07/14 12:34:57;;;;;;;5.43;1.70;;;;;33.00;101474.00;;;;10489756;28;20274;-79
2022/07/14 12:39:59;;;;;;;5.22;1.70;;;;;31.90;101464.00;;;;10435359;28;20281;-80
2022/07/14 12:45:03;;;;;;;3.17;1.50;;;;;31.60;101461.00;;;;10438405;28;20710;-79
2022/07/14 12:50:21;;;;;;;6.47;1.85;;;;;32.20;101468.00;;;;10437821;28;20197;-80
2022/07/14 12:55:33;;;;;;;3.58;1.50;;;;;31.80;101471.00;;;;10430011;28;20250;-79
2022/07/14 13:00:36;;;;;;;6.20;1.58;;;;;30.80;101477.00;;;;10462042;28;20278;-79
2022/07/14 13:05:47;;;;;;;8.52;1.65;;;;;30.20;101475.00;;;;10415546;28;20573;-79
2022/07/14 13:10:58;;;;;;;2.92;1.65;;;;;29.50;101476.00;;;;10473497;28;20692;-78
2022/07/14 13:16:24;;;;;;;3.17;1.65;;;;;29.90;101470.00;;;;10465240;28;20185;-79
2022/07/14 13:21:54;;;;;;;2.85;1.63;;;;;29.40;101476.00;;;;10448077;28;20247;-79
2022/07/14 13:27:03;;;;;;;7.90;1.95;;;;;29.40;101482.00;;;;10418382;28;20194;-79
2022/07/14 13:32:08;;;;;;;6.45;1.92;;;;;29.70;101485.00;;;;10475166;28;20619;-79
2022/07/14 13:37:15;;;;;;;3.90;1.83;;;;;30.40;101478.00;;;;10411400;28;20271;-79
2022/07/14 13:42:17;;;;;;;3.38;1.58;;;;;30.90;101471.00;;;;10473954;28;20185;-79
2022/07/14 13:47:19;;;;;;;3.30;1.77;;;;;30.50;101476.00;;;;10449442;28;20576;-80
2022/07/14 13:52:21;;;;;;;4.80;1.77;;;;;29.50;101480.00;;;;10426922;28;20220;-79
2022/07/14 13:57:23;;;;;;;5.53;2.08;;;;;28.40;101493.00;;;;10475589;28;20663;-79
2022/07/14 14:02:25;;;;;;;3.00;1.90;;;;;28.60;101495.00;;;;10434063;28;20272;-79
2022/07/14 14:07:27;;;;;;;7.53;2.33;;;;;28.60;101492.00;;;;10452118;28;20190;-80
2022/07/14 14:12:29;;;;;;;7.03;1.90;;;;;29.00;101480.00;;;;10449526;28;20300;-79
2022/07/14 14:17:33;;;;;;;5.10;2.00;;;;;28.70;101490.00;;;;10434105;28;20213;-80
2022/07/14 14:22:35;;;;;;;5.97;2.03;;;;;31.00;101475.00;;;;10432510;28;20538;-79
2022/07/14 14:27:37;;;;;;;4.55;2.03;;;;;32.90;101495.00;;;;10441927;28;20193;-79
2022/07/14 14:32:39;;;;;;;6.88;2.35;;;;;34.50;101478.00;;;;10441362;28;20244;-79
2022/07/14 14:37:41;;;;;;;3.42;1.88;;;;;36.80;101481.00;;;;10442594;28;20198;-78
2022/07/14 14:42:45;;;;;;;6.47;1.95;;;;;35.10;101486.00;;;;10446263;28;20233;-78
2022/07/14 14:47:48;;;;;;;6.95;2.63;;;;;35.60;101477.00;;;;10424844;28;20507;-78
2022/07/14 14:52:50;;;;;;;5.50;2.03;;;;;34.60;101488.00;;;;10451629;28;20248;-79
2022/07/14 14:57:52;;;;;;;5.07;1.63;;;;;36.40;101498.00;;;;10443303;28;20205;-79
2022/07/14 15:02:55;;;;;;;4.55;1.70;;;;;35.00;101490.00;;;;10429388;28;20217;-78
2022/07/14 15:07:57;;;;;;;5.30;1.90;;;;;32.40;101487.00;;;;10463510;28;20560;-78
2022/07/14 15:12:59;;;;;;;4.20;1.77;;;;;36.50;101494.00;;;;10445564;28;20221;-78
2022/07/14 15:18:07;;;;;;;3.72;1.67;;;;;36.50;101496.00;;;;10475323;28;20251;-78
2022/07/14 15:23:09;;;;;;;4.85;1.50;;;;;37.40;101494.00;;;;10419803;28;20193;-78
2022/07/14 15:28:11;;;;;;;4.45;1.60;;;;;37.40;101487.00;;;;10468731;28;20193;-78
2022/07/14 15:33:20;;;;;;;4.07;1.75;;;;;38.40;101490.00;;;;10401211;28;20220;-78
2022/07/14 15:38:22;;;;;;;4.30;1.77;;;;;38.10;101488.00;;;;10470847;28;20549;-78
2022/07/14 15:43:24;;;;;;;7.07;2.38;;;;;37.80;101476.00;;;;10467143;28;20802;-79
2022/07/14 15:48:26;;;;;;;3.42;1.70;;;;;34.80;101487.00;;;;10470482;28;20738;-79
2022/07/14 15:53:29;;;;;;;5.55;1.95;;;;;31.90;101498.00;;;;10444088;28;20209;-78
2022/07/14 15:58:31;;;;;;;3.67;1.80;;;;;29.40;101489.00;;;;10475979;28;20304;-78
2022/07/14 16:03:33;;;;;;;5.43;1.85;;;;;28.40;101492.00;;;;10437461;28;20186;-78
2022/07/14 16:08:35;;;;;;;4.60;1.70;;;;;28.20;101482.00;;;;10443793;28;20193;-79
2022/07/14 16:13:37;;;;;;;3.70;1.75;;;;;27.40;101477.00;;;;10431857;28;20216;-79
2022/07/14 16:18:39;;;;;;;4.28;1.98;;;;;27.40;101488.00;;;;10454062;28;20254;-79
2022/07/14 16:23:41;;;;;;;5.70;2.00;;;;;27.90;101482.00;;;;10433574;28;20276;-78
2022/07/14 16:28:43;;;;;;;5.63;1.77;;;;;28.00;101478.00;;;;10447322;28;20192;-77
2022/07/14 16:33:45;;;;;;;4.05;1.58;;;;;27.60;101491.00;;;;10458949;28;20244;-79
2022/07/14 16:38:47;;;;;;;4.10;1.50;;;;;26.70;101488.00;;;;10453714;28;20228;-78
2022/07/14 16:43:49;;;;;;;8.63;1.95;;;;;26.80;101479.00;;;;10439361;28;20182;-79
2022/07/14 16:48:52;;;;;;;3.45;1.52;;;;;26.70;101493.00;;;;10440578;28;20247;-79
2022/07/14 16:53:55;;;;;;;5.15;1.98;;;;;25.60;101494.00;;;;10440606;28;20469;-80
2022/07/14 16:58:57;;;;;;;3.90;1.67;;;;;25.50;101486.00;;;;10439298;28;20300;-79
2022/07/14 17:03:59;;;;;;;4.05;1.65;;;;;25.20;101494.00;;;;10422724;28;20205;-79
2022/07/14 17:09:02;;;;;;;2.97;1.55;;;;;24.70;101499.00;;;;10465538;28;20631;-79
2022/07/14 17:14:05;;;;;;;1.65;1.08;;;;;24.60;101504.00;;;;10483775;28;20750;-79
2022/07/14 17:19:07;;;;;;;2.67;1.20;;;;;24.70;101511.00;;;;10502180;28;20190;-78
2022/07/14 17:24:09;;;;;;;1.77;0.85;;;;;24.30;101504.00;;;;10452779;28;20201;-79
2022/07/14 17:29:11;;;;;;;1.45;1.00;;;;;23.80;101517.00;;;;10433611;28;20221;-79
2022/07/14 17:34:13;;;;;;;2.08;1.10;;;;;23.50;101519.00;;;;10467394;28;20243;-79
2022/07/14 17:39:20;;;;;;;1.73;0.90;;;;;23.30;101515.00;;;;10449751;28;20196;-79
2022/07/14 17:44:22;;;;;;;2.25;1.00;;;;;22.90;101522.00;;;;10432262;28;20323;-79
2022/07/14 17:49:24;;;;;;;2.55;0.90;;;;;22.80;101525.00;;;;10439753;28;20206;-79
2022/07/14 17:54:26;;;;;;;5.68;0.80;;;;;22.80;101524.00;;;;10441356;28;20521;-79
2022/07/14 17:59:28;;;;;;;4.18;1.38;;;;;22.70;101536.00;;;;10457514;28;20225;-79
2022/07/14 18:04:30;;;;;;;4.57;1.00;;;;;22.60;101547.00;;;;10477068;28;20289;-78
2022/07/14 18:09:32;;;;;;;2.45;0.75;;;;;22.40;101552.00;;;;10447474;28;20210;-79
2022/07/14 18:14:35;;;;;;;2.45;1.00;;;;;22.20;101543.00;;;;10466482;28;20208;-78
2022/07/14 18:19:37;;;;;;;2.38;0.85;;;;;22.00;101559.00;;;;10440396;28;20193;-79
2022/07/14 18:24:41;;;;;;;3.35;1.27;;;;;21.90;101566.00;;;;10466086;28;20552;-78
2022/07/14 18:29:43;;;;;;;3.88;1.65;;;;;21.70;101575.00;;;;10466379;28;20244;-78
2022/07/14 18:34:45;;;;;;;3.15;1.55;;;;;21.50;101584.00;;;;10466545;28;20221;-78
2022/07/14 18:39:47;;;;;;;3.53;1.27;;;;;21.30;101584.00;;;;10464963;28;20178;-79
2022/07/14 18:50:12;;;;;;;4.68;1.70;;;;;20.80;101594.00;;;;10448850;28;20216;-78
2022/07/14 18:55:14;;;;;;;6.15;1.95;;;;;20.70;101590.00;;;;10437739;28;20236;-78
2022/07/14 19:00:19;;;;;;;4.38;1.80;;;;;20.50;101596.00;;;;10439186;28;20222;-78
2022/07/14 19:05:21;;;;;;;8.40;2.28;;;;;20.40;101597.00;;;;10424792;28;20301;-78
2022/07/14 19:10:24;;;;;;;3.63;2.03;;;;;20.30;101606.00;;;;10464575;28;20216;-78
2022/07/14 19:15:26;;;;;;;3.28;1.73;;;;;20.10;101608.00;;;;10406155;28;20648;-78
2022/07/14 19:20:29;;;;;;;5.07;1.70;;;;;19.90;101615.00;;;;10438976;28;20207;-79
2022/07/14 19:25:32;;;;;;;4.68;1.83;;;;;19.80;101616.00;;;;10423131;28;20194;-78
2022/07/14 19:30:35;;;;;;;6.25;1.80;;;;;19.60;101626.00;;;;10453536;28;20206;-78
2022/07/14 19:35:37;;;;;;;7.28;2.20;;;;;19.30;101634.00;;;;10405735;28;20736;-78
2022/07/14 19:40:39;;;;;;;9.05;2.20;;;;;19.10;101641.00;;;;10423119;28;20198;-78
2022/07/14 19:45:41;;;;;;;4.93;1.92;;;;;18.90;101649.00;;;;10431978;28;20625;-78
2022/07/14 19:50:44;;;;;;;5.53;1.80;;;;;18.70;101654.00;;;;10433305;28;20294;-78
2022/07/14 19:55:46;;;;;;;3.78;1.65;;;;;18.60;101650.00;;;;10462336;28;20312;-78
2022/07/14 20:00:48;;;;;;;5.03;1.67;;;;;18.40;101660.00;;;;10473291;28;20308;-78
2022/07/14 20:06:12;;;;;;;5.05;1.52;;;;;18.20;101674.00;;;;10444585;28;20582;-80
2022/07/14 20:11:14;;;;;;;4.13;1.55;;;;;18.10;101681.00;;;;10430360;28;20206;-80
2022/07/14 20:16:18;;;;;;;5.47;2.10;;;;;18.00;101678.00;;;;10447653;28;20200;-80
2022/07/14 20:21:20;;;;;;;6.55;1.42;;;;;17.90;101681.00;;;;10451157;28;20264;-78
2022/07/14 20:26:22;;;;;;;4.95;1.80;;;;;17.70;101687.00;;;;10458816;28;20206;-79
2022/07/14 20:36:46;;;;;;;5.47;1.90;;;;;17.40;101680.00;;;;10443298;28;20262;-79
2022/07/14 20:41:48;;;;;;;6.03;1.60;;;;;17.30;101682.00;;;;10439811;28;20660;-79
2022/07/14 20:52:13;;;;;;;2.97;1.60;;;;;17.10;101700.00;;;;10450359;28;20707;-79
2022/07/14 20:57:15;;;;;;;5.07;1.87;;;;;17.00;101692.00;;;;10442668;28;20251;-79
2022/07/14 21:02:17;;;;;;;3.43;1.37;;;;;16.90;101707.00;;;;10458300;28;20232;-80
2022/07/14 21:07:19;;;;;;;3.90;1.73;;;;;16.80;101707.00;;;;10447067;28;20331;-79
2022/07/14 21:12:22;;;;;;;6.63;1.70;;;;;16.70;101698.00;;;;10387311;28;20628;-79
2022/07/14 21:17:24;;;;;;;6.70;2.47;;;;;16.60;101712.00;;;;10442731;28;20197;-79
2022/07/14 21:22:27;;;;;;;3.03;1.97;;;;;16.50;101714.00;;;;10443957;28;20706;-79
2022/07/14 21:27:29;;;;;;;5.60;1.70;;;;;16.40;101727.00;;;;10460613;28;20284;-79
2022/07/14 21:32:31;;;;;;;2.80;1.70;;;;;16.30;101729.00;;;;10459883;28;20227;-79
2022/07/14 21:37:33;;;;;;;6.67;2.20;;;;;16.20;101729.00;;;;10477516;28;20186;-79
2022/07/14 21:42:35;;;;;;;5.37;1.97;;;;;16.20;101731.00;;;;10429916;28;20240;-79
2022/07/14 21:47:37;;;;;;;4.23;2.00;;;;;16.00;101735.00;;;;10404404;28;20519;-79
2022/07/14 21:52:39;;;;;;;7.53;2.10;;;;;15.90;101750.00;;;;10478490;28;20696;-79
2022/07/14 21:57:41;;;;;;;4.93;2.00;;;;;15.80;101747.00;;;;10437344;28;20228;-79
2022/07/14 22:02:44;;;;;;;5.13;2.07;;;;;15.70;101750.00;;;;10453822;28;20717;-80
2022/07/14 22:07:47;;;;;;;5.27;2.30;;;;;15.60;101758.00;;;;10444259;28;20197;-80
2022/07/14 22:12:50;;;;;;;4.90;2.23;;;;;15.60;101753.00;;;;10452067;28;20221;-80
2022/07/14 22:17:52;;;;;;;6.53;2.40;;;;;15.50;101756.00;;;;10430321;28;20186;-80
2022/07/14 22:23:14;;;;;;;4.57;2.50;;;;;15.40;101757.00;;;;10452217;28;20272;-80
2022/07/14 22:28:16;;;;;;;5.03;2.43;;;;;15.30;101766.00;;;;10450302;28;20190;-80
2022/07/14 22:33:19;;;;;;;6.47;2.53;;;;;15.30;101766.00;;;;10466701;28;20220;-80
2022/07/14 22:38:20;;;;;;;6.20;2.80;;;;;15.30;101773.00;;;;10450311;28;20668;-80
2022/07/14 22:43:23;;;;;;;5.50;2.33;;;;;15.20;101778.00;;;;10433570;28;20194;-80
2022/07/14 22:48:25;;;;;;;8.13;2.83;;;;;15.10;101775.00;;;;10465132;28;20753;-80
2022/07/14 22:53:27;;;;;;;8.07;2.60;;;;;15.10;101774.00;;;;10465770;28;20221;-80
2022/07/14 22:58:29;;;;;;;6.50;2.50;;;;;15.10;101783.00;;;;10465608;28;20667;-80
2022/07/14 23:03:31;;;;;;;6.37;3.10;;;;;15.00;101778.00;;;;10460781;28;20217;-80
2022/07/14 23:08:33;;;;;;;8.57;2.70;;;;;14.90;101781.00;;;;10432130;28;20190;-80
2022/07/14 23:13:35;;;;;;;8.70;3.13;;;;;14.90;101789.00;;;;10465305;28;20216;-80
2022/07/14 23:18:37;;;;;;;5.37;2.80;;;;;14.90;101784.00;;;;10432439;28;20198;-80
2022/07/14 23:23:40;;;;;;;8.40;3.07;;;;;14.90;101790.00;;;;10448673;28;20239;-80
2022/07/14 23:28:42;;;;;;;7.27;3.17;;;;;14.90;101792.00;;;;10431726;28;20308;-80
2022/07/14 23:33:44;;;;;;;7.83;3.57;;;;;14.90;101788.00;;;;10449416;28;20248;-80
2022/07/14 23:38:48;;;;;;;5.27;2.43;;;;;14.80;101789.00;;;;10449328;28;20197;-80
2022/07/14 23:43:50;;;;;;;8.77;3.30;;;;;14.80;101792.00;;;;10465350;28;20220;-80
2022/07/14 23:48:52;;;;;;;12.67;3.40;;;;;14.70;101787.00;;;;10432681;28;20551;-80
2022/07/14 23:53:53;;;;;;;6.50;3.00;;;;;14.70;101792.00;;;;10446727;28;20573;-80
2022/07/14 23:58:55;;;;;;;6.60;2.87;;;;;14.50;101790.00;;;;10431964;28;20573;-80
